Time;durP1;ratioP1;P1;durP2;ratioP2;P2;SDS_P1;SDS_P2;PMS_P1;PMS_P2;Temp;Humidity;BMP_temperature;BMP_pressure;BME280_temperature;BME280_humidity;BME280_pressure;Samples;Min_cycle;Max_cycle;Signal;HPM_P1;HPM_P2
2021/09/26 00:00:14;;;;;;;6.40;4.20;;;15.40;92.60;;;;;;2081086;28;20177;-65
2021/09/26 00:01:15;;;;;;;6.45;4.35;;;15.40;92.70;;;;;;2081396;28;20315;-65
2021/09/26 00:02:19;;;;;;;11.40;5.50;;;15.30;92.90;;;;;;2081561;28;20184;-65
2021/09/26 00:03:19;;;;;;;10.13;4.90;;;15.30;93.80;;;;;;2081631;28;20246;-65
2021/09/26 00:04:20;;;;;;;8.63;4.90;;;15.20;93.70;;;;;;2081521;28;20485;-65
2021/09/26 00:05:21;;;;;;;10.50;5.23;;;15.20;94.00;;;;;;2081434;28;20177;-66
2021/09/26 00:06:22;;;;;;;10.37;5.37;;;15.10;94.40;;;;;;2081571;28;20181;-65
2021/09/26 00:07:23;;;;;;;12.23;5.50;;;15.10;94.20;;;;;;2081462;28;20173;-66
2021/09/26 00:08:23;;;;;;;7.57;5.27;;;15.10;94.40;;;;;;2081636;28;20434;-66
2021/09/26 00:09:24;;;;;;;8.53;4.70;;;15.10;94.60;;;;;;2081451;28;20467;-65
2021/09/26 00:10:25;;;;;;;9.93;5.33;;;15.10;94.70;;;;;;2081615;28;20169;-65
2021/09/26 00:11:26;;;;;;;8.67;5.33;;;15.10;94.60;;;;;;2081207;28;20177;-65
2021/09/26 00:12:27;;;;;;;8.95;4.97;;;15.10;94.60;;;;;;2080939;28;20613;-66
2021/09/26 00:13:27;;;;;;;7.77;5.37;;;15.10;94.60;;;;;;2080719;28;20197;-65
2021/09/26 00:14:28;;;;;;;11.87;6.73;;;15.10;94.90;;;;;;2081532;28;20231;-65
2021/09/26 00:15:29;;;;;;;9.67;5.23;;;15.10;94.90;;;;;;2081394;28;20192;-66
2021/09/26 00:16:30;;;;;;;9.50;5.33;;;15.10;94.70;;;;;;2081511;28;20177;-65
2021/09/26 00:17:30;;;;;;;11.87;5.47;;;15.10;94.60;;;;;;2081448;28;20205;-65
2021/09/26 00:18:31;;;;;;;11.13;5.77;;;15.10;94.60;;;;;;2081527;28;20184;-65
2021/09/26 00:19:32;;;;;;;13.70;5.60;;;15.10;94.50;;;;;;2081505;28;20184;-65
2021/09/26 00:20:33;;;;;;;9.37;5.63;;;15.10;94.40;;;;;;2081503;28;20181;-69
2021/09/26 00:21:33;;;;;;;7.40;5.20;;;15.10;94.40;;;;;;2081253;28;20238;-66
2021/09/26 00:22:35;;;;;;;9.43;5.80;;;15.10;94.40;;;;;;2081543;28;20189;-65
2021/09/26 00:23:36;;;;;;;7.65;5.63;;;15.00;94.40;;;;;;2080774;28;20738;-65
2021/09/26 00:24:37;;;;;;;8.10;5.33;;;15.00;94.50;;;;;;2080963;28;20176;-66
2021/09/26 00:25:37;;;;;;;10.60;5.07;;;15.00;94.70;;;;;;2081460;28;20177;-65
2021/09/26 00:26:38;;;;;;;8.43;5.60;;;15.00;94.80;;;;;;2081552;28;20534;-65
2021/09/26 00:27:39;;;;;;;10.20;5.77;;;15.00;95.20;;;;;;2081422;28;20275;-69
2021/09/26 00:28:40;;;;;;;11.27;5.63;;;15.00;95.10;;;;;;2081032;28;20173;-66
2021/09/26 00:29:41;;;;;;;9.67;5.57;;;15.00;95.20;;;;;;2080869;28;20426;-67
2021/09/26 00:30:42;;;;;;;9.93;5.57;;;15.00;95.50;;;;;;2080862;28;20172;-66
2021/09/26 00:31:42;;;;;;;11.80;5.37;;;15.00;95.40;;;;;;2080580;28;20184;-65
2021/09/26 00:32:45;;;;;;;9.23;5.40;;;15.00;95.20;;;;;;2081524;28;20276;-67
2021/09/26 00:33:45;;;;;;;6.65;5.50;;;15.00;95.10;;;;;;2081375;28;20212;-65
2021/09/26 00:34:46;;;;;;;6.63;5.10;;;15.00;94.90;;;;;;2081442;28;20177;-64
2021/09/26 00:35:47;;;;;;;10.50;5.87;;;15.10;94.90;;;;;;2081467;28;20185;-66
2021/09/26 00:36:48;;;;;;;7.20;5.37;;;15.10;94.70;;;;;;2081241;28;20420;-65
2021/09/26 00:37:49;;;;;;;11.90;5.20;;;15.10;94.70;;;;;;2082523;28;20824;-65
2021/09/26 00:38:49;;;;;;;11.20;5.30;;;15.10;94.50;;;;;;2083075;28;20243;-65
2021/09/26 00:39:50;;;;;;;8.83;5.27;;;15.10;94.40;;;;;;2083117;28;20188;-65
2021/09/26 00:40:52;;;;;;;8.23;5.27;;;15.00;94.30;;;;;;2082996;28;20185;-65
2021/09/26 00:41:52;;;;;;;7.27;5.40;;;15.00;94.20;;;;;;2082353;28;20184;-65
2021/09/26 00:42:53;;;;;;;6.30;5.07;;;15.00;94.20;;;;;;2082428;28;20499;-65
2021/09/26 00:43:54;;;;;;;10.33;5.33;;;15.00;94.30;;;;;;2082958;28;20647;-65
2021/09/26 00:44:54;;;;;;;8.30;5.43;;;14.90;94.30;;;;;;2082928;28;20191;-65
2021/09/26 00:45:55;;;;;;;8.83;5.43;;;14.90;94.40;;;;;;2080155;28;20656;-65
2021/09/26 00:46:56;;;;;;;9.90;5.10;;;14.90;94.30;;;;;;2074116;28;20209;-65
2021/09/26 00:47:57;;;;;;;8.23;5.80;;;14.90;94.30;;;;;;2074222;28;20178;-65
2021/09/26 00:48:58;;;;;;;6.75;5.25;;;14.90;94.30;;;;;;2074143;28;20189;-65
2021/09/26 00:49:59;;;;;;;10.43;6.10;;;14.90;94.50;;;;;;2074754;28;20237;-65
2021/09/26 00:50:59;;;;;;;10.23;5.27;;;14.90;94.40;;;;;;2074631;28;20212;-68
2021/09/26 00:52:00;;;;;;;9.33;5.47;;;14.90;94.40;;;;;;2074220;28;20189;-65
2021/09/26 00:53:02;;;;;;;7.10;5.00;;;14.90;94.50;;;;;;2073976;28;20190;-65
2021/09/26 00:54:03;;;;;;;8.07;5.70;;;14.90;94.50;;;;;;2074673;28;20622;-66
2021/09/26 00:55:05;;;;;;;11.18;5.30;;;14.90;94.50;;;;;;2074644;28;20189;-65
2021/09/26 00:56:07;;;;;;;9.85;6.03;;;14.80;94.70;;;;;;2074176;28;20193;-66
2021/09/26 00:57:08;;;;;;;9.27;5.50;;;14.70;94.90;;;;;;2074137;28;20186;-66
2021/09/26 00:58:09;;;;;;;8.93;5.20;;;14.70;95.00;;;;;;2074063;28;20266;-65
2021/09/26 00:59:09;;;;;;;8.40;5.20;;;14.60;95.00;;;;;;2074171;28;20582;-65
2021/09/26 01:00:14;;;;;;;9.93;6.17;;;14.60;95.00;;;;;;2074663;28;20181;-65
2021/09/26 01:01:15;;;;;;;6.90;4.67;;;14.60;95.10;;;;;;2073860;28;20174;-64
2021/09/26 01:02:16;;;;;;;7.95;5.18;;;14.50;95.60;;;;;;2074142;28;20424;-65
2021/09/26 01:03:17;;;;;;;8.43;5.40;;;14.40;95.90;;;;;;2074415;28;20193;-66
2021/09/26 01:04:18;;;;;;;9.43;5.83;;;14.30;96.40;;;;;;2074069;28;20665;-66
2021/09/26 01:05:23;;;;;;;10.52;5.20;;;14.20;96.50;;;;;;2066015;28;20191;-65
2021/09/26 01:06:52;;;;;;;9.48;5.30;;;14.10;96.70;;;;;;2066718;28;20170;-65
2021/09/26 01:08:19;;;;;;;10.05;5.53;;;14.00;97.00;;;;;;2074257;28;20181;-65
2021/09/26 01:09:34;;;;;;;9.07;5.70;;;14.00;96.90;;;;;;2073756;28;20201;-65
2021/09/26 01:11:30;;;;;;;10.75;5.70;;;14.10;96.80;;;;;;2067616;28;20158;-65
2021/09/26 01:12:37;;;;;;;7.45;4.82;;;14.10;96.50;;;;;;2049391;28;20588;-65
2021/09/26 01:14:08;;;;;;;8.13;5.57;;;14.20;96.20;;;;;;2070542;28;20236;-67
2021/09/26 01:15:15;;;;;;;9.63;5.57;;;14.20;96.00;;;;;;2074737;28;20162;-65
2021/09/26 01:16:43;;;;;;;7.63;5.43;;;14.20;95.90;;;;;;2074503;28;20600;-66
2021/09/26 01:17:57;;;;;;;9.65;5.68;;;14.20;95.70;;;;;;2073983;28;20648;-67
2021/09/26 01:19:30;;;;;;;8.95;5.95;;;14.20;95.70;;;;;;2073995;28;20555;-64
2021/09/26 01:21:04;;;;;;;9.13;5.63;;;14.20;95.60;;;;;;2070177;28;20162;-64
2021/09/26 01:22:12;;;;;;;9.57;6.43;;;14.20;95.60;;;;;;2074300;28;20190;-65
2021/09/26 01:23:51;;;;;;;10.43;6.00;;;14.10;95.50;;;;;;2074543;28;20240;-65
2021/09/26 01:25:20;;;;;;;7.85;5.68;;;14.10;95.60;;;;;;2081368;28;20224;-65
2021/09/26 01:26:36;;;;;;;10.75;5.57;;;14.10;95.50;;;;;;2082659;28;20233;-64
2021/09/26 01:28:13;;;;;;;10.45;5.97;;;14.10;95.60;;;;;;2082339;28;20232;-66
2021/09/26 01:29:44;;;;;;;9.27;5.57;;;14.00;95.80;;;;;;2082446;28;20165;-65
2021/09/26 01:30:53;;;;;;;10.05;5.60;;;14.00;95.80;;;;;;2082636;28;20268;-65
2021/09/26 01:32:06;;;;;;;9.85;5.68;;;14.00;96.10;;;;;;2082019;28;20176;-65
2021/09/26 01:33:20;;;;;;;11.00;5.80;;;13.90;96.20;;;;;;2082203;28;20350;-65
2021/09/26 01:34:28;;;;;;;12.98;6.28;;;13.90;96.30;;;;;;2082639;28;20279;-67
2021/09/26 01:35:31;;;;;;;10.75;6.03;;;13.90;96.30;;;;;;2082076;28;20603;-66
2021/09/26 01:36:47;;;;;;;6.45;5.60;;;13.90;96.20;;;;;;2074236;28;20178;-64
2021/09/26 01:38:10;;;;;;;11.20;5.88;;;13.90;95.90;;;;;;2075966;28;20574;-65
2021/09/26 01:39:17;;;;;;;10.30;5.72;;;14.00;95.70;;;;;;2076863;28;20648;-65
2021/09/26 01:41:11;;;;;;;10.75;5.85;;;14.00;95.50;;;;;;2074866;28;20576;-65
2021/09/26 01:42:25;;;;;;;9.02;5.63;;;14.00;95.30;;;;;;2081931;28;20193;-65
2021/09/26 01:43:37;;;;;;;7.43;5.30;;;14.00;95.20;;;;;;2081870;28;20560;-64
2021/09/26 01:44:57;;;;;;;9.00;5.22;;;13.90;95.20;;;;;;2075252;28;20174;-65
2021/09/26 01:46:05;;;;;;;12.27;5.70;;;13.80;95.40;;;;;;2084639;28;20181;-65
2021/09/26 01:47:10;;;;;;;10.70;5.97;;;13.70;96.00;;;;;;2089339;28;20180;-66
2021/09/26 01:48:18;;;;;;;7.07;5.25;;;13.70;95.70;;;;;;2081918;28;20292;-66
2021/09/26 01:49:29;;;;;;;9.35;5.70;;;13.70;95.70;;;;;;2073579;28;20188;-66
2021/09/26 01:50:30;;;;;;;8.07;5.60;;;13.70;95.60;;;;;;2075125;28;20669;-65
2021/09/26 01:51:40;;;;;;;11.57;6.18;;;13.60;95.60;;;;;;2073447;28;20162;-65
2021/09/26 01:52:45;;;;;;;12.82;6.03;;;13.60;95.40;;;;;;2074821;28;20202;-66
2021/09/26 01:53:47;;;;;;;14.27;6.65;;;13.60;95.40;;;;;;2081916;28;20173;-65
2021/09/26 01:54:48;;;;;;;12.20;6.18;;;13.60;95.70;;;;;;2081894;28;20276;-65
2021/09/26 01:55:50;;;;;;;9.68;6.35;;;13.60;95.80;;;;;;2081772;28;20561;-66
2021/09/26 01:56:53;;;;;;;7.65;5.70;;;13.60;95.90;;;;;;2081809;28;20225;-65
2021/09/26 01:57:57;;;;;;;9.43;5.63;;;13.50;96.00;;;;;;2081788;28;20169;-65
2021/09/26 01:58:58;;;;;;;11.38;5.65;;;13.50;96.00;;;;;;2074121;28;20181;-65
2021/09/26 02:00:03;;;;;;;8.57;5.90;;;13.40;96.40;;;;;;2073832;28;20240;-65
2021/09/26 02:01:06;;;;;;;13.85;7.10;;;13.40;96.60;;;;;;2081688;28;20236;-65
2021/09/26 02:02:07;;;;;;;12.05;7.05;;;13.40;96.90;;;;;;2073724;28;20193;-65
2021/09/26 02:03:09;;;;;;;16.30;6.97;;;13.30;97.10;;;;;;2081798;28;20201;-64
2021/09/26 02:04:11;;;;;;;10.52;6.60;;;13.30;97.30;;;;;;2081799;28;20185;-66
2021/09/26 02:05:12;;;;;;;11.68;6.45;;;13.30;97.30;;;;;;2073883;28;20174;-65
2021/09/26 02:06:13;;;;;;;10.52;6.85;;;13.40;97.10;;;;;;2073593;28;20268;-65
2021/09/26 02:07:14;;;;;;;12.23;6.40;;;13.40;96.90;;;;;;2081807;28;20181;-65
2021/09/26 02:08:16;;;;;;;10.43;6.43;;;13.30;96.80;;;;;;2089780;28;20693;-67
2021/09/26 02:09:17;;;;;;;9.38;6.40;;;13.30;96.80;;;;;;2082301;28;20640;-65
2021/09/26 02:10:22;;;;;;;11.85;6.43;;;13.30;96.60;;;;;;2081795;28;20173;-65
2021/09/26 02:11:23;;;;;;;11.60;6.38;;;13.30;96.50;;;;;;2065642;28;20236;-65
2021/09/26 02:12:26;;;;;;;8.57;6.47;;;13.40;96.40;;;;;;2065432;28;20653;-65
2021/09/26 02:13:29;;;;;;;9.10;5.97;;;13.30;96.30;;;;;;2081620;28;20444;-65
2021/09/26 02:14:31;;;;;;;8.65;5.88;;;13.30;96.30;;;;;;2081849;28;20185;-65
2021/09/26 02:15:33;;;;;;;10.45;5.78;;;13.30;96.20;;;;;;2081669;28;20188;-65
2021/09/26 02:16:35;;;;;;;12.65;5.78;;;13.30;96.20;;;;;;2081693;28;20221;-65
2021/09/26 02:17:38;;;;;;;11.75;6.72;;;13.30;96.20;;;;;;2081815;28;20204;-65
2021/09/26 02:18:39;;;;;;;9.07;6.35;;;13.30;96.20;;;;;;2082351;28;20185;-65
2021/09/26 02:19:41;;;;;;;10.65;6.85;;;13.40;96.10;;;;;;2073483;28;20193;-65
2021/09/26 02:20:42;;;;;;;10.23;6.72;;;13.40;96.10;;;;;;2065413;28;20621;-66
2021/09/26 02:21:45;;;;;;;10.38;6.60;;;13.40;96.10;;;;;;2081480;28;20181;-65
2021/09/26 02:22:48;;;;;;;10.90;6.90;;;13.40;96.20;;;;;;2081457;28;20192;-67
2021/09/26 02:23:49;;;;;;;8.25;6.47;;;13.30;96.40;;;;;;2081422;28;20207;-66
2021/09/26 02:24:51;;;;;;;14.15;6.55;;;13.20;96.40;;;;;;2082084;28;20189;-65
2021/09/26 02:25:53;;;;;;;11.57;7.28;;;13.20;96.50;;;;;;2082407;28;20192;-66
2021/09/26 02:26:54;;;;;;;10.32;6.70;;;13.20;96.50;;;;;;2081426;28;20182;-66
2021/09/26 02:27:55;;;;;;;9.17;6.60;;;13.20;96.50;;;;;;2073251;28;20186;-65
2021/09/26 02:28:56;;;;;;;11.65;6.32;;;13.20;96.60;;;;;;2081482;28;20189;-66
2021/09/26 02:29:57;;;;;;;10.35;6.35;;;13.10;96.80;;;;;;2080477;28;20188;-65
2021/09/26 02:30:58;;;;;;;10.37;6.07;;;13.10;96.80;;;;;;2080730;28;20185;-66
2021/09/26 02:31:59;;;;;;;9.02;6.15;;;13.00;97.00;;;;;;2072962;28;20189;-65
2021/09/26 02:33:01;;;;;;;10.60;7.00;;;13.00;97.10;;;;;;2073068;28;20193;-66
2021/09/26 02:34:01;;;;;;;9.30;6.43;;;12.90;97.00;;;;;;2081299;28;20335;-66
2021/09/26 02:35:05;;;;;;;8.50;5.93;;;12.90;96.90;;;;;;2081286;28;20636;-66
2021/09/26 02:36:07;;;;;;;8.07;6.03;;;12.90;96.70;;;;;;2082120;28;20177;-65
2021/09/26 02:37:08;;;;;;;7.60;6.15;;;13.00;96.60;;;;;;2081395;28;20235;-66
2021/09/26 02:38:09;;;;;;;11.63;6.80;;;12.90;96.60;;;;;;2081521;28;20768;-66
2021/09/26 02:39:17;;;;;;;8.73;5.93;;;12.90;96.50;;;;;;2081880;28;20268;-66
2021/09/26 02:40:19;;;;;;;10.90;5.53;;;12.90;96.30;;;;;;2081302;28;20161;-66
2021/09/26 02:41:47;;;;;;;8.38;4.93;;;12.90;96.20;;;;;;2073222;28;20173;-66
2021/09/26 02:43:20;;;;;;;11.65;5.63;;;12.90;96.10;;;;;;2076578;28;20191;-64
2021/09/26 02:44:56;;;;;;;7.68;5.80;;;12.80;96.40;;;;;;2077597;28;20176;-66
2021/09/26 02:46:06;;;;;;;12.77;5.40;;;12.80;96.40;;;;;;2078058;28;20165;-65
2021/09/26 02:47:18;;;;;;;10.25;5.80;;;12.80;96.40;;;;;;2081343;28;20268;-65
2021/09/26 02:48:26;;;;;;;11.13;6.43;;;12.80;96.40;;;;;;2076183;28;20197;-65
2021/09/26 02:49:28;;;;;;;14.02;6.38;;;12.80;96.50;;;;;;2065925;28;20182;-65
2021/09/26 02:50:30;;;;;;;8.90;5.85;;;12.70;96.40;;;;;;2065017;28;20191;-66
2021/09/26 02:51:33;;;;;;;9.25;6.28;;;12.70;96.20;;;;;;2064871;28;20664;-65
2021/09/26 02:52:34;;;;;;;8.48;5.95;;;12.70;96.30;;;;;;2065350;28;20194;-65
2021/09/26 02:53:35;;;;;;;9.25;5.63;;;12.70;96.20;;;;;;2064906;28;20206;-65
2021/09/26 02:54:39;;;;;;;14.93;6.47;;;12.70;96.30;;;;;;2073070;28;20182;-65
2021/09/26 02:55:43;;;;;;;11.45;6.07;;;12.60;96.20;;;;;;2080994;28;20181;-67
2021/09/26 02:56:45;;;;;;;9.02;6.47;;;12.60;96.40;;;;;;2080837;28;20177;-65
2021/09/26 02:57:46;;;;;;;9.38;6.20;;;12.60;96.50;;;;;;2072958;28;20182;-65
2021/09/26 02:58:47;;;;;;;9.80;5.43;;;12.50;96.50;;;;;;2073077;28;20170;-65
2021/09/26 02:59:48;;;;;;;7.27;5.63;;;12.50;96.40;;;;;;2073679;28;20232;-65
2021/09/26 03:00:50;;;;;;;8.70;6.30;;;12.60;96.30;;;;;;2073323;28;20665;-65
2021/09/26 03:01:53;;;;;;;8.80;5.70;;;12.50;96.20;;;;;;2073306;28;20776;-66
2021/09/26 03:03:03;;;;;;;11.82;6.13;;;12.50;96.10;;;;;;2073066;28;20578;-66
2021/09/26 03:04:05;;;;;;;7.68;5.80;;;12.50;96.40;;;;;;2074366;28;20638;-65
2021/09/26 03:05:08;;;;;;;7.30;5.43;;;12.50;96.60;;;;;;2081059;28;20185;-65
2021/09/26 03:06:09;;;;;;;10.32;6.13;;;12.40;96.60;;;;;;2072947;28;20645;-66
2021/09/26 03:07:13;;;;;;;8.47;6.17;;;12.40;96.70;;;;;;2072989;28;20232;-65
2021/09/26 03:08:16;;;;;;;9.38;5.80;;;12.40;96.70;;;;;;2081068;28;20181;-65
2021/09/26 03:09:16;;;;;;;9.35;5.90;;;12.40;96.70;;;;;;2080731;28;20184;-64
2021/09/26 03:10:17;;;;;;;11.07;6.03;;;12.40;96.70;;;;;;2081046;28;20280;-65
2021/09/26 03:11:18;;;;;;;8.93;5.50;;;12.40;96.70;;;;;;2080752;28;20558;-66
2021/09/26 03:12:21;;;;;;;12.43;6.20;;;12.40;96.80;;;;;;2073485;28;20260;-65
2021/09/26 03:13:22;;;;;;;7.32;5.97;;;12.40;96.80;;;;;;2081119;28;20219;-64
2021/09/26 03:14:23;;;;;;;9.15;5.97;;;12.40;96.90;;;;;;2080936;28;20283;-66
2021/09/26 03:15:23;;;;;;;10.23;6.63;;;12.30;96.80;;;;;;2073578;28;20177;-64
2021/09/26 03:16:24;;;;;;;8.00;5.63;;;12.40;96.90;;;;;;2073502;28;20382;-64
2021/09/26 03:17:25;;;;;;;8.23;6.10;;;12.40;96.90;;;;;;2073593;28;20186;-65
2021/09/26 03:18:26;;;;;;;9.38;6.30;;;12.30;96.90;;;;;;2073405;28;20166;-65
2021/09/26 03:19:27;;;;;;;7.37;5.77;;;12.30;96.90;;;;;;2078890;28;20624;-66
2021/09/26 03:20:27;;;;;;;9.17;6.07;;;12.30;97.40;;;;;;2081613;28;20627;-66
2021/09/26 03:21:28;;;;;;;9.87;5.80;;;12.30;96.90;;;;;;2081494;28;20189;-65
2021/09/26 03:22:29;;;;;;;11.70;5.97;;;12.20;96.80;;;;;;2081545;28;20188;-65
2021/09/26 03:23:30;;;;;;;11.40;7.00;;;12.20;96.90;;;;;;2081599;28;20189;-64
2021/09/26 03:24:31;;;;;;;13.23;6.77;;;12.20;96.80;;;;;;2081571;28;20263;-65
2021/09/26 03:25:33;;;;;;;10.70;6.93;;;12.30;97.00;;;;;;2081087;28;20184;-65
2021/09/26 03:26:34;;;;;;;10.27;5.90;;;12.30;97.10;;;;;;2080909;28;20268;-65
2021/09/26 03:27:35;;;;;;;9.02;6.10;;;12.20;96.90;;;;;;2081592;28;20596;-65
2021/09/26 03:28:36;;;;;;;7.97;6.13;;;12.20;96.60;;;;;;2081498;28;20322;-66
2021/09/26 03:29:41;;;;;;;9.67;5.87;;;12.30;96.30;;;;;;2081561;28;20188;-64
2021/09/26 03:30:42;;;;;;;8.48;5.50;;;12.20;96.20;;;;;;2081609;28;20176;-65
2021/09/26 03:31:42;;;;;;;10.20;5.90;;;12.20;96.10;;;;;;2081355;28;20180;-65
2021/09/26 03:32:43;;;;;;;8.27;5.60;;;12.20;96.20;;;;;;2081524;28;20177;-67
2021/09/26 03:33:44;;;;;;;8.57;5.83;;;12.10;96.30;;;;;;2080730;28;20201;-65
2021/09/26 03:34:45;;;;;;;8.45;6.28;;;12.10;96.40;;;;;;2072793;28;20641;-66
2021/09/26 03:35:46;;;;;;;8.60;5.87;;;12.00;96.40;;;;;;2081051;28;20199;-65
2021/09/26 03:36:46;;;;;;;15.53;6.17;;;12.00;96.40;;;;;;2081597;28;20658;-65
2021/09/26 03:37:47;;;;;;;10.60;5.73;;;12.00;96.50;;;;;;2081566;28;20176;-66
2021/09/26 03:38:48;;;;;;;10.30;6.53;;;12.00;96.90;;;;;;2081406;28;20599;-65
2021/09/26 03:39:51;;;;;;;7.88;6.00;;;12.00;96.80;;;;;;2080905;28;20593;-66
2021/09/26 03:40:51;;;;;;;11.40;6.15;;;12.00;96.80;;;;;;2080841;28;20616;-66
2021/09/26 03:41:52;;;;;;;14.83;6.60;;;12.00;96.80;;;;;;2081266;28;20201;-65
2021/09/26 03:42:53;;;;;;;11.90;6.17;;;12.00;96.70;;;;;;2081419;28;20651;-65
2021/09/26 03:43:53;;;;;;;11.77;6.23;;;12.00;96.60;;;;;;2081381;28;20226;-66
2021/09/26 03:44:54;;;;;;;10.57;6.20;;;12.00;96.70;;;;;;2081418;28;20653;-65
2021/09/26 03:45:55;;;;;;;9.93;5.90;;;12.00;96.90;;;;;;2081367;28;20211;-64
2021/09/26 03:46:56;;;;;;;9.97;5.70;;;12.00;97.00;;;;;;2081357;28;20192;-66
2021/09/26 03:47:56;;;;;;;8.70;6.23;;;12.00;97.00;;;;;;2080807;28;20185;-65
2021/09/26 03:48:57;;;;;;;8.63;6.13;;;12.10;97.10;;;;;;2080992;28;20192;-65
2021/09/26 03:49:58;;;;;;;10.67;6.07;;;12.10;97.10;;;;;;2081378;28;20226;-65
2021/09/26 03:50:58;;;;;;;9.47;6.47;;;12.10;97.30;;;;;;2081367;28;20200;-65
2021/09/26 03:51:59;;;;;;;12.93;6.43;;;12.10;97.40;;;;;;2080626;28;20663;-65
2021/09/26 03:53:00;;;;;;;7.77;5.90;;;12.10;97.40;;;;;;2080769;28;20223;-65
2021/09/26 03:54:01;;;;;;;10.70;6.33;;;12.20;97.40;;;;;;2081229;28;20213;-65
2021/09/26 03:55:05;;;;;;;11.97;6.10;;;12.20;97.20;;;;;;2081364;28;20173;-65
2021/09/26 03:56:06;;;;;;;7.75;6.00;;;12.20;97.10;;;;;;2080786;28;20181;-65
2021/09/26 03:57:07;;;;;;;11.27;6.10;;;12.30;97.00;;;;;;2080837;28;20219;-65
2021/09/26 03:58:08;;;;;;;9.98;6.05;;;12.30;96.80;;;;;;2081329;28;20185;-65
2021/09/26 03:59:10;;;;;;;9.90;6.17;;;12.40;96.60;;;;;;2081429;28;20652;-66
2021/09/26 04:00:15;;;;;;;10.63;6.63;;;12.40;96.50;;;;;;2081204;28;20601;-65
2021/09/26 04:01:16;;;;;;;8.02;6.05;;;12.40;96.60;;;;;;2080601;28;20184;-66
2021/09/26 04:02:17;;;;;;;11.27;5.87;;;12.40;96.60;;;;;;2080729;28;20660;-65
2021/09/26 04:03:17;;;;;;;9.10;5.80;;;12.40;96.80;;;;;;2081271;28;20197;-65
2021/09/26 04:04:19;;;;;;;8.77;6.43;;;12.40;96.90;;;;;;2081319;28;20652;-65
2021/09/26 04:05:19;;;;;;;8.02;5.68;;;12.50;96.80;;;;;;2081306;28;20208;-65
2021/09/26 04:06:20;;;;;;;7.87;5.90;;;12.50;96.60;;;;;;2081383;28;20189;-65
2021/09/26 04:07:21;;;;;;;10.47;6.27;;;12.50;96.50;;;;;;2081327;28;20205;-65
2021/09/26 04:08:22;;;;;;;8.07;5.97;;;12.50;96.40;;;;;;2081228;28;20227;-66
2021/09/26 04:09:23;;;;;;;8.20;5.47;;;12.50;96.40;;;;;;2081252;28;20520;-65
2021/09/26 04:10:23;;;;;;;8.07;5.40;;;12.50;96.10;;;;;;2081283;28;20478;-65
2021/09/26 04:11:24;;;;;;;14.57;5.80;;;12.40;96.00;;;;;;2081035;28;20771;-65
2021/09/26 04:12:25;;;;;;;6.37;5.17;;;12.40;96.10;;;;;;2080580;28;20246;-65
2021/09/26 04:13:26;;;;;;;7.37;5.23;;;12.30;96.10;;;;;;2080787;28;20578;-65
2021/09/26 04:14:26;;;;;;;6.90;5.17;;;12.30;96.20;;;;;;2080621;28;20656;-65
2021/09/26 04:15:27;;;;;;;7.77;5.40;;;12.30;96.30;;;;;;2081327;28;20173;-64
2021/09/26 04:16:29;;;;;;;6.73;5.10;;;12.30;96.30;;;;;;2081177;28;20181;-65
2021/09/26 04:17:30;;;;;;;8.98;5.35;;;12.30;96.30;;;;;;2081325;28;20256;-65
2021/09/26 04:18:30;;;;;;;8.37;6.10;;;12.30;96.30;;;;;;2080660;28;20177;-66
2021/09/26 04:19:31;;;;;;;8.47;5.70;;;12.30;96.30;;;;;;2080703;28;20220;-65
2021/09/26 04:20:32;;;;;;;7.83;6.07;;;12.30;96.30;;;;;;2081336;28;20169;-65
2021/09/26 04:21:32;;;;;;;8.80;6.03;;;12.40;96.30;;;;;;2080971;28;20169;-66
2021/09/26 04:22:34;;;;;;;7.77;5.90;;;12.40;96.30;;;;;;2081355;28;20703;-65
2021/09/26 04:23:35;;;;;;;10.00;5.80;;;12.40;96.40;;;;;;2081185;28;20196;-65
2021/09/26 04:24:36;;;;;;;6.93;5.68;;;12.40;96.40;;;;;;2081202;28;20656;-65
2021/09/26 04:25:37;;;;;;;7.63;6.17;;;12.40;96.30;;;;;;2081256;28;20268;-66
2021/09/26 04:26:38;;;;;;;10.23;6.00;;;12.40;96.30;;;;;;2081225;28;20180;-65
2021/09/26 04:27:38;;;;;;;12.30;6.07;;;12.40;96.20;;;;;;2081242;28;20185;-66
2021/09/26 04:28:39;;;;;;;8.23;5.93;;;12.40;96.10;;;;;;2081248;28;20177;-65
2021/09/26 04:29:40;;;;;;;8.57;5.50;;;12.40;95.90;;;;;;2081348;28;20183;-65
2021/09/26 04:30:40;;;;;;;7.93;5.70;;;12.30;95.80;;;;;;2081250;28;20200;-66
2021/09/26 04:31:41;;;;;;;7.80;5.20;;;12.30;96.00;;;;;;2080823;28;20239;-65
2021/09/26 04:32:42;;;;;;;5.90;5.00;;;12.30;96.00;;;;;;2081314;28;20187;-65
2021/09/26 04:33:43;;;;;;;8.53;5.07;;;12.20;96.00;;;;;;2081004;28;20227;-66
2021/09/26 04:34:44;;;;;;;9.90;5.87;;;12.10;96.10;;;;;;2081333;28;20550;-65
2021/09/26 04:35:45;;;;;;;7.23;5.87;;;12.10;96.30;;;;;;2081344;28;20183;-67
2021/09/26 04:36:46;;;;;;;10.20;6.20;;;12.10;96.50;;;;;;2081227;28;20177;-65
2021/09/26 04:37:46;;;;;;;7.03;6.00;;;12.00;96.80;;;;;;2080554;28;20196;-66
2021/09/26 04:38:47;;;;;;;13.13;6.40;;;12.00;97.00;;;;;;2080620;28;20213;-66
2021/09/26 04:39:48;;;;;;;9.10;6.67;;;12.00;97.20;;;;;;2079492;28;20185;-65
2021/09/26 04:40:49;;;;;;;10.37;7.50;;;11.90;97.30;;;;;;2073141;28;20282;-65
2021/09/26 04:41:49;;;;;;;11.37;7.47;;;11.90;97.30;;;;;;2072872;28;20324;-65
2021/09/26 04:42:51;;;;;;;11.83;8.10;;;11.90;97.40;;;;;;2072912;28;20193;-65
2021/09/26 04:43:51;;;;;;;9.40;7.18;;;11.90;97.30;;;;;;2072345;28;20181;-66
2021/09/26 04:44:52;;;;;;;12.00;7.33;;;11.90;97.20;;;;;;2072431;28;20693;-65
2021/09/26 04:45:53;;;;;;;10.47;7.50;;;12.00;97.10;;;;;;2072939;28;20265;-65
2021/09/26 04:46:53;;;;;;;10.40;6.63;;;11.90;96.90;;;;;;2073093;28;20264;-65
2021/09/26 04:47:54;;;;;;;8.53;6.70;;;12.00;96.80;;;;;;2073004;28;20181;-65
2021/09/26 04:48:55;;;;;;;11.57;6.57;;;11.90;96.90;;;;;;2073072;28;20200;-65
2021/09/26 04:49:55;;;;;;;9.77;6.73;;;12.00;97.00;;;;;;2073028;28;20280;-65
2021/09/26 04:50:56;;;;;;;10.83;6.93;;;12.00;96.80;;;;;;2072920;28;20190;-65
2021/09/26 04:52:00;;;;;;;12.10;6.83;;;12.00;96.60;;;;;;2072750;28;20174;-67
2021/09/26 04:53:01;;;;;;;8.38;6.97;;;12.00;96.60;;;;;;2072934;28;20178;-65
2021/09/26 04:54:01;;;;;;;9.90;7.10;;;12.00;96.50;;;;;;2072867;28;20221;-65
2021/09/26 04:55:04;;;;;;;9.33;7.13;;;12.00;96.50;;;;;;2072992;28;20667;-65
2021/09/26 04:56:05;;;;;;;8.05;6.50;;;12.10;96.50;;;;;;2072320;28;20268;-65
2021/09/26 04:57:06;;;;;;;13.10;7.40;;;12.10;96.60;;;;;;2072446;28;20205;-65
2021/09/26 04:58:06;;;;;;;8.17;6.90;;;12.10;96.80;;;;;;2072923;28;20181;-67
2021/09/26 04:59:07;;;;;;;12.23;6.80;;;12.10;96.90;;;;;;2073040;28;20186;-68
2021/09/26 05:00:09;;;;;;;11.27;7.23;;;12.10;97.00;;;;;;2072935;28;20624;-66
2021/09/26 05:01:11;;;;;;;9.07;6.72;;;12.10;97.00;;;;;;2072121;28;20679;-67
2021/09/26 05:02:12;;;;;;;11.25;7.10;;;12.20;97.10;;;;;;2072313;28;20174;-68
2021/09/26 05:03:13;;;;;;;8.70;6.60;;;12.20;97.10;;;;;;2072909;28;20236;-66
2021/09/26 05:04:14;;;;;;;8.82;6.68;;;12.20;97.10;;;;;;2072148;28;20649;-66
2021/09/26 05:05:16;;;;;;;10.38;7.22;;;12.30;97.10;;;;;;2072383;28;20228;-66
2021/09/26 05:06:17;;;;;;;8.45;6.53;;;12.30;97.60;;;;;;2072353;28;20181;-66
2021/09/26 05:07:20;;;;;;;12.03;7.00;;;12.30;97.10;;;;;;2072376;28;20181;-67
2021/09/26 05:08:21;;;;;;;10.95;7.13;;;12.40;97.10;;;;;;2072940;28;20178;-66
2021/09/26 05:09:21;;;;;;;14.73;9.63;;;12.40;97.00;;;;;;2072896;28;20177;-66
2021/09/26 05:10:22;;;;;;;16.40;9.60;;;12.50;97.40;;;;;;2072830;28;20280;-67
2021/09/26 05:11:23;;;;;;;14.40;9.00;;;12.60;97.70;;;;;;2072717;28;20239;-67
2021/09/26 05:12:23;;;;;;;12.53;7.97;;;12.60;98.00;;;;;;2072921;28;20532;-68
2021/09/26 05:13:24;;;;;;;12.23;8.47;;;12.70;98.00;;;;;;2072898;28;20194;-67
2021/09/26 05:14:25;;;;;;;11.20;8.33;;;12.70;98.00;;;;;;2072785;28;20268;-66
2021/09/26 05:15:26;;;;;;;10.90;7.00;;;12.80;97.90;;;;;;2072832;28;20190;-68
2021/09/26 05:16:27;;;;;;;10.00;6.10;;;12.80;97.70;;;;;;2072934;28;20272;-66
2021/09/26 05:17:28;;;;;;;11.67;6.50;;;12.90;96.90;;;;;;2072944;28;20261;-66
2021/09/26 05:18:29;;;;;;;10.13;5.72;;;12.80;96.40;;;;;;2073087;28;20209;-66
2021/09/26 05:19:30;;;;;;;10.77;6.47;;;12.70;96.10;;;;;;2072909;28;20174;-67
2021/09/26 05:20:30;;;;;;;9.70;6.80;;;12.60;96.50;;;;;;2072875;28;20174;-66
2021/09/26 05:21:31;;;;;;;7.90;5.90;;;12.60;96.50;;;;;;2072921;28;20544;-65
2021/09/26 05:22:32;;;;;;;11.63;6.47;;;12.60;96.60;;;;;;2072950;28;20304;-67
2021/09/26 05:23:34;;;;;;;10.93;7.60;;;12.60;96.70;;;;;;2073295;28;20193;-66
2021/09/26 05:24:35;;;;;;;10.85;7.20;;;12.60;96.80;;;;;;2074497;28;20178;-66
2021/09/26 05:25:36;;;;;;;10.13;6.63;;;12.70;96.90;;;;;;2074397;28;20190;-66
2021/09/26 05:26:37;;;;;;;8.40;6.30;;;12.70;96.80;;;;;;2074458;28;20193;-67
2021/09/26 05:27:38;;;;;;;10.23;6.85;;;12.70;96.90;;;;;;2081703;28;20191;-66
2021/09/26 05:28:38;;;;;;;12.00;6.83;;;12.70;96.90;;;;;;2082174;28;20184;-66
2021/09/26 05:29:40;;;;;;;12.23;7.43;;;12.80;96.80;;;;;;2082628;28;20180;-66